sensor_id;sensor_type;location;lat;lon;timestamp;pressure;altitude;pressure_sealevel;temperature;humidity
46534;BME280;32260;52.008;4.752;2023-01-13T00:01:55;100361.88;;;10.51;60.48
46534;BME280;32260;52.008;4.752;2023-01-13T00:04:21;100347.28;;;10.36;60.94
46534;BME280;32260;52.008;4.752;2023-01-13T00:06:47;100351.66;;;10.38;61.23
46534;BME280;32260;52.008;4.752;2023-01-13T00:09:14;100350.03;;;10.32;61.61
46534;BME280;32260;52.008;4.752;2023-01-13T00:11:40;100362.22;;;10.39;61.93
46534;BME280;32260;52.008;4.752;2023-01-13T00:14:06;100355.28;;;10.33;62.33
46534;BME280;32260;52.008;4.752;2023-01-13T00:16:32;100367.03;;;10.23;63.12
46534;BME280;32260;52.008;4.752;2023-01-13T00:18:58;100377.69;;;10.20;64.01
46534;BME280;32260;52.008;4.752;2023-01-13T00:21:24;100369.00;;;10.15;64.26
46534;BME280;32260;52.008;4.752;2023-01-13T00:23:53;100386.38;;;10.25;64.03
46534;BME280;32260;52.008;4.752;2023-01-13T00:26:22;100368.59;;;10.30;64.67
46534;BME280;32260;52.008;4.752;2023-01-13T00:28:49;100371.09;;;10.38;64.60
46534;BME280;32260;52.008;4.752;2023-01-13T00:31:18;100369.81;;;10.53;64.67
46534;BME280;32260;52.008;4.752;2023-01-13T00:33:44;100361.19;;;10.45;64.84
46534;BME280;32260;52.008;4.752;2023-01-13T00:36:12;100359.13;;;10.56;65.38
46534;BME280;32260;52.008;4.752;2023-01-13T00:38:39;100355.56;;;10.57;65.41
46534;BME280;32260;52.008;4.752;2023-01-13T00:41:11;100354.47;;;10.64;65.43
46534;BME280;32260;52.008;4.752;2023-01-13T00:43:38;100348.22;;;10.67;65.76
46534;BME280;32260;52.008;4.752;2023-01-13T00:46:06;100343.66;;;10.72;65.79
46534;BME280;32260;52.008;4.752;2023-01-13T00:48:33;100342.97;;;10.65;66.25
46534;BME280;32260;52.008;4.752;2023-01-13T00:51:01;100344.63;;;10.70;66.46
46534;BME280;32260;52.008;4.752;2023-01-13T00:53:32;100348.28;;;10.65;66.56
46534;BME280;32260;52.008;4.752;2023-01-13T00:56:00;100341.25;;;10.63;66.57
46534;BME280;32260;52.008;4.752;2023-01-13T00:58:31;100340.34;;;10.64;66.81
46534;BME280;32260;52.008;4.752;2023-01-13T01:01:00;100325.50;;;10.58;66.72
46534;BME280;32260;52.008;4.752;2023-01-13T01:03:26;100329.19;;;10.52;66.97
46534;BME280;32260;52.008;4.752;2023-01-13T01:05:54;100319.72;;;10.44;66.76
46534;BME280;32260;52.008;4.752;2023-01-13T01:08:21;100315.13;;;10.50;66.82
46534;BME280;32260;52.008;4.752;2023-01-13T01:10:47;100325.97;;;10.41;66.99
46534;BME280;32260;52.008;4.752;2023-01-13T01:13:13;100317.25;;;10.38;67.08
46534;BME280;32260;52.008;4.752;2023-01-13T01:15:42;100328.06;;;10.28;67.44
46534;BME280;32260;52.008;4.752;2023-01-13T01:18:09;100338.88;;;10.19;68.32
46534;BME280;32260;52.008;4.752;2023-01-13T01:20:36;100348.50;;;10.23;68.56
46534;BME280;32260;52.008;4.752;2023-01-13T01:23:03;100336.25;;;10.19;68.95
46534;BME280;32260;52.008;4.752;2023-01-13T01:25:29;100327.59;;;10.12;69.31
46534;BME280;32260;52.008;4.752;2023-01-13T01:27:56;100330.31;;;10.11;69.03
46534;BME280;32260;52.008;4.752;2023-01-13T01:30:23;100324.06;;;10.13;68.77
46534;BME280;32260;52.008;4.752;2023-01-13T01:32:49;100315.22;;;10.14;68.84
46534;BME280;32260;52.008;4.752;2023-01-13T01:35:15;100322.38;;;10.09;68.84
46534;BME280;32260;52.008;4.752;2023-01-13T01:37:41;100327.50;;;10.17;68.62
46534;BME280;32260;52.008;4.752;2023-01-13T01:40:08;100323.91;;;10.18;68.93
46534;BME280;32260;52.008;4.752;2023-01-13T01:42:34;100335.59;;;10.11;68.84
46534;BME280;32260;52.008;4.752;2023-01-13T01:45:22;100332.19;;;10.06;68.84
46534;BME280;32260;52.008;4.752;2023-01-13T01:47:56;100327.81;;;10.03;68.94
46534;BME280;32260;52.008;4.752;2023-01-13T01:50:24;100337.81;;;9.92;68.59
46534;BME280;32260;52.008;4.752;2023-01-13T01:52:55;100335.97;;;9.95;68.41
46534;BME280;32260;52.008;4.752;2023-01-13T01:55:28;100324.22;;;10.07;68.21
46534;BME280;32260;52.008;4.752;2023-01-13T02:00:38;100330.53;;;10.01;68.02
46534;BME280;32260;52.008;4.752;2023-01-13T02:03:06;100322.78;;;9.94;67.74
46534;BME280;32260;52.008;4.752;2023-01-13T02:05:33;100328.94;;;9.94;68.10
46534;BME280;32260;52.008;4.752;2023-01-13T02:08:00;100335.19;;;9.92;68.10
46534;BME280;32260;52.008;4.752;2023-01-13T02:10:28;100329.25;;;9.82;67.83
46534;BME280;32260;52.008;4.752;2023-01-13T02:12:57;100321.09;;;9.91;67.83
46534;BME280;32260;52.008;4.752;2023-01-13T02:15:37;100297.13;;;9.97;67.45
46534;BME280;32260;52.008;4.752;2023-01-13T02:31:41;100256.09;;;10.14;65.28
46534;BME280;32260;52.008;4.752;2023-01-13T02:34:21;100274.44;;;10.20;65.14
46534;BME280;32260;52.008;4.752;2023-01-13T02:36:57;100269.59;;;10.03;64.60
46534;BME280;32260;52.008;4.752;2023-01-13T02:39:28;100272.91;;;10.11;64.54
46534;BME280;32260;52.008;4.752;2023-01-13T02:42:04;100264.75;;;10.19;63.91
46534;BME280;32260;52.008;4.752;2023-01-13T02:44:57;100276.19;;;10.21;63.91
46534;BME280;32260;52.008;4.752;2023-01-13T02:47:28;100284.19;;;10.19;63.88
46534;BME280;32260;52.008;4.752;2023-01-13T02:50:01;100286.84;;;10.18;64.23
46534;BME280;32260;52.008;4.752;2023-01-13T02:52:40;100274.50;;;10.18;64.13
46534;BME280;32260;52.008;4.752;2023-01-13T02:55:21;100278.09;;;10.16;63.92
46534;BME280;32260;52.008;4.752;2023-01-13T02:57:50;100285.41;;;10.06;64.10
46534;BME280;32260;52.008;4.752;2023-01-13T03:00:19;100280.16;;;10.04;64.11
46534;BME280;32260;52.008;4.752;2023-01-13T03:02:47;100282.03;;;10.01;64.12
46534;BME280;32260;52.008;4.752;2023-01-13T03:05:14;100279.38;;;10.01;64.19
46534;BME280;32260;52.008;4.752;2023-01-13T03:08:04;100281.06;;;10.03;64.20
46534;BME280;32260;52.008;4.752;2023-01-13T03:11:00;100275.19;;;9.92;64.67
46534;BME280;32260;52.008;4.752;2023-01-13T03:16:52;100274.13;;;9.99;64.59
46534;BME280;32260;52.008;4.752;2023-01-13T03:20:31;100275.84;;;10.00;64.94
46534;BME280;32260;52.008;4.752;2023-01-13T03:22:22;100281.22;;;9.97;65.07
46534;BME280;32260;52.008;4.752;2023-01-13T03:24:59;100276.00;;;9.94;65.29
46534;BME280;32260;52.008;4.752;2023-01-13T03:30:32;100282.72;;;10.08;65.38
46534;BME280;32260;52.008;4.752;2023-01-13T03:33:07;100281.03;;;10.05;65.80
46534;BME280;32260;52.008;4.752;2023-01-13T03:35:39;100274.13;;;9.99;66.00
46534;BME280;32260;52.008;4.752;2023-01-13T03:38:16;100273.19;;;10.00;66.29
46534;BME280;32260;52.008;4.752;2023-01-13T03:40:48;100268.84;;;9.99;66.26
46534;BME280;32260;52.008;4.752;2023-01-13T03:43:20;100278.59;;;9.97;66.48
46534;BME280;32260;52.008;4.752;2023-01-13T03:46:15;100278.88;;;9.86;66.86
46534;BME280;32260;52.008;4.752;2023-01-13T03:48:44;100269.16;;;9.87;66.88
46534;BME280;32260;52.008;4.752;2023-01-13T03:51:16;100283.13;;;9.92;66.89
46534;BME280;32260;52.008;4.752;2023-01-13T03:53:48;100279.13;;;9.76;67.42
46534;BME280;32260;52.008;4.752;2023-01-13T03:56:23;100277.44;;;9.73;67.29
46534;BME280;32260;52.008;4.752;2023-01-13T03:58:52;100275.56;;;9.78;67.04
46534;BME280;32260;52.008;4.752;2023-01-13T04:01:25;100276.31;;;9.82;66.75
46534;BME280;32260;52.008;4.752;2023-01-13T04:04:05;100269.28;;;9.82;66.61
46534;BME280;32260;52.008;4.752;2023-01-13T04:09:17;100260.59;;;9.76;66.54
46534;BME280;32260;52.008;4.752;2023-01-13T04:11:50;100276.63;;;9.71;66.14
46534;BME280;32260;52.008;4.752;2023-01-13T04:14:19;100271.53;;;9.63;65.94
46534;BME280;32260;52.008;4.752;2023-01-13T04:16:48;100281.81;;;9.74;65.72
46534;BME280;32260;52.008;4.752;2023-01-13T04:19:14;100282.78;;;9.71;65.33
46534;BME280;32260;52.008;4.752;2023-01-13T04:21:40;100269.66;;;9.67;64.95
46534;BME280;32260;52.008;4.752;2023-01-13T04:24:08;100276.75;;;9.66;64.72
46534;BME280;32260;52.008;4.752;2023-01-13T04:26:34;100281.97;;;9.69;64.38
46534;BME280;32260;52.008;4.752;2023-01-13T04:29:00;100284.91;;;9.57;64.51
46534;BME280;32260;52.008;4.752;2023-01-13T04:31:26;100284.56;;;9.71;64.49
46534;BME280;32260;52.008;4.752;2023-01-13T04:33:52;100280.06;;;9.75;64.32
46534;BME280;32260;52.008;4.752;2023-01-13T04:36:18;100283.47;;;9.80;64.16
46534;BME280;32260;52.008;4.752;2023-01-13T04:38:50;100287.91;;;9.78;64.32
46534;BME280;32260;52.008;4.752;2023-01-13T04:41:16;100286.91;;;9.82;64.44
46534;BME280;32260;52.008;4.752;2023-01-13T04:43:42;100295.19;;;9.69;64.36
46534;BME280;32260;52.008;4.752;2023-01-13T04:46:08;100305.59;;;9.76;64.34
46534;BME280;32260;52.008;4.752;2023-01-13T04:48:34;100299.25;;;9.83;64.35
46534;BME280;32260;52.008;4.752;2023-01-13T04:51:00;100311.88;;;9.71;64.86
46534;BME280;32260;52.008;4.752;2023-01-13T04:53:27;100295.59;;;9.88;64.68
46534;BME280;32260;52.008;4.752;2023-01-13T04:55:53;100285.84;;;9.89;64.93
46534;BME280;32260;52.008;4.752;2023-01-13T04:58:19;100287.38;;;9.99;64.96
46534;BME280;32260;52.008;4.752;2023-01-13T05:00:46;100290.97;;;9.95;65.04
46534;BME280;32260;52.008;4.752;2023-01-13T05:03:12;100289.28;;;9.93;65.08
46534;BME280;32260;52.008;4.752;2023-01-13T05:05:38;100304.34;;;9.91;64.94
46534;BME280;32260;52.008;4.752;2023-01-13T05:08:04;100299.66;;;10.00;64.71
46534;BME280;32260;52.008;4.752;2023-01-13T05:10:31;100286.09;;;10.13;64.50
46534;BME280;32260;52.008;4.752;2023-01-13T05:12:57;100277.59;;;10.01;64.40
46534;BME280;32260;52.008;4.752;2023-01-13T05:15:43;100283.03;;;9.95;64.42
46534;BME280;32260;52.008;4.752;2023-01-13T05:18:29;100279.66;;;9.90;64.28
46534;BME280;32260;52.008;4.752;2023-01-13T05:20:55;100288.50;;;9.89;63.88
46534;BME280;32260;52.008;4.752;2023-01-13T05:23:36;100271.66;;;9.92;63.84
46534;BME280;32260;52.008;4.752;2023-01-13T05:26:23;100282.41;;;9.85;63.81
46534;BME280;32260;52.008;4.752;2023-01-13T05:28:49;100284.16;;;9.86;63.62
46534;BME280;32260;52.008;4.752;2023-01-13T05:31:15;100276.09;;;9.91;63.75
46534;BME280;32260;52.008;4.752;2023-01-13T05:33:41;100283.50;;;9.78;63.77
46534;BME280;32260;52.008;4.752;2023-01-13T05:36:07;100278.06;;;9.83;63.58
46534;BME280;32260;52.008;4.752;2023-01-13T05:38:33;100290.75;;;9.70;63.72
46534;BME280;32260;52.008;4.752;2023-01-13T05:40:59;100293.16;;;9.79;63.78
46534;BME280;32260;52.008;4.752;2023-01-13T05:43:45;100295.94;;;9.75;63.78
46534;BME280;32260;52.008;4.752;2023-01-13T05:46:11;100294.84;;;9.83;63.52
46534;BME280;32260;52.008;4.752;2023-01-13T05:48:40;100294.00;;;9.81;63.71
46534;BME280;32260;52.008;4.752;2023-01-13T05:51:09;100303.09;;;9.71;63.36
46534;BME280;32260;52.008;4.752;2023-01-13T05:53:36;100308.75;;;9.90;63.36
46534;BME280;32260;52.008;4.752;2023-01-13T05:56:06;100301.88;;;9.83;63.16
46534;BME280;32260;52.008;4.752;2023-01-13T05:58:33;100302.78;;;9.82;62.97
46534;BME280;32260;52.008;4.752;2023-01-13T06:01:04;100306.06;;;9.93;63.02
46534;BME280;32260;52.008;4.752;2023-01-13T06:03:31;100301.53;;;9.97;62.52
46534;BME280;32260;52.008;4.752;2023-01-13T06:05:57;100313.16;;;9.91;62.01
46534;BME280;32260;52.008;4.752;2023-01-13T06:08:26;100307.69;;;9.97;62.02
46534;BME280;32260;52.008;4.752;2023-01-13T06:10:52;100310.56;;;9.88;61.60
46534;BME280;32260;52.008;4.752;2023-01-13T06:13:19;100289.34;;;9.91;60.98
46534;BME280;32260;52.008;4.752;2023-01-13T06:15:45;100298.75;;;10.01;60.83
46534;BME280;32260;52.008;4.752;2023-01-13T06:18:11;100312.91;;;10.00;60.83
46534;BME280;32260;52.008;4.752;2023-01-13T06:20:37;100298.91;;;9.95;60.97
46534;BME280;32260;52.008;4.752;2023-01-13T06:23:03;100305.78;;;10.02;60.66
46534;BME280;32260;52.008;4.752;2023-01-13T06:26:01;100323.16;;;10.13;60.45
46534;BME280;32260;52.008;4.752;2023-01-13T06:28:29;100326.66;;;10.15;60.40
46534;BME280;32260;52.008;4.752;2023-01-13T06:30:58;100324.97;;;10.12;60.33
46534;BME280;32260;52.008;4.752;2023-01-13T06:33:29;100316.13;;;10.12;60.21
46534;BME280;32260;52.008;4.752;2023-01-13T06:35:58;100329.72;;;10.32;59.75
46534;BME280;32260;52.008;4.752;2023-01-13T06:38:26;100326.31;;;10.27;59.94
46534;BME280;32260;52.008;4.752;2023-01-13T06:40:53;100331.63;;;10.27;59.87
46534;BME280;32260;52.008;4.752;2023-01-13T06:43:20;100339.50;;;10.29;60.01
46534;BME280;32260;52.008;4.752;2023-01-13T06:45:51;100322.53;;;10.38;60.45
46534;BME280;32260;52.008;4.752;2023-01-13T06:48:19;100338.50;;;10.34;60.54
46534;BME280;32260;52.008;4.752;2023-01-13T06:50:46;100335.09;;;10.29;60.86
46534;BME280;32260;52.008;4.752;2023-01-13T06:53:13;100345.72;;;10.28;61.14
46534;BME280;32260;52.008;4.752;2023-01-13T06:55:39;100344.63;;;10.36;61.09
46534;BME280;32260;52.008;4.752;2023-01-13T06:58:05;100341.91;;;10.40;60.96
46534;BME280;32260;52.008;4.752;2023-01-13T07:00:31;100334.94;;;10.35;60.40
46534;BME280;32260;52.008;4.752;2023-01-13T07:03:17;100323.44;;;10.38;60.26
46534;BME280;32260;52.008;4.752;2023-01-13T07:05:51;100333.81;;;10.46;59.93
46534;BME280;32260;52.008;4.752;2023-01-13T07:08:17;100347.16;;;10.41;59.83
46534;BME280;32260;52.008;4.752;2023-01-13T07:10:46;100337.25;;;10.48;60.13
46534;BME280;32260;52.008;4.752;2023-01-13T07:13:12;100346.09;;;10.48;59.43
46534;BME280;32260;52.008;4.752;2023-01-13T07:16:00;100358.31;;;10.52;58.93
46534;BME280;32260;52.008;4.752;2023-01-13T07:18:28;100336.22;;;10.54;59.03
46534;BME280;32260;52.008;4.752;2023-01-13T07:20:58;100344.56;;;10.40;58.46
46534;BME280;32260;52.008;4.752;2023-01-13T07:23:26;100336.34;;;10.49;59.46
46534;BME280;32260;52.008;4.752;2023-01-13T07:25:55;100346.31;;;10.41;58.45
46534;BME280;32260;52.008;4.752;2023-01-13T07:28:22;100356.72;;;10.47;58.23
46534;BME280;32260;52.008;4.752;2023-01-13T07:30:49;100356.91;;;10.41;57.76
46534;BME280;32260;52.008;4.752;2023-01-13T07:33:15;100361.09;;;10.48;57.43
46534;BME280;32260;52.008;4.752;2023-01-13T07:35:43;100342.97;;;10.65;57.48
46534;BME280;32260;52.008;4.752;2023-01-13T07:38:10;100346.38;;;10.71;58.04
46534;BME280;32260;52.008;4.752;2023-01-13T07:40:36;100356.13;;;10.68;57.65
46534;BME280;32260;52.008;4.752;2023-01-13T07:43:04;100369.03;;;10.48;57.81
46534;BME280;32260;52.008;4.752;2023-01-13T07:45:55;100355.25;;;10.68;57.28
46534;BME280;32260;52.008;4.752;2023-01-13T07:48:23;100359.72;;;10.66;57.51
46534;BME280;32260;52.008;4.752;2023-01-13T07:50:49;100376.91;;;10.51;57.14
46534;BME280;32260;52.008;4.752;2023-01-13T07:53:16;100362.50;;;10.61;57.00
46534;BME280;32260;52.008;4.752;2023-01-13T07:55:43;100371.13;;;10.70;57.49
46534;BME280;32260;52.008;4.752;2023-01-13T07:58:10;100380.13;;;10.62;57.29
46534;BME280;32260;52.008;4.752;2023-01-13T08:00:37;100370.41;;;10.63;56.91
46534;BME280;32260;52.008;4.752;2023-01-13T08:03:03;100371.69;;;10.81;57.46
46534;BME280;32260;52.008;4.752;2023-01-13T08:05:29;100385.09;;;10.75;57.13
46534;BME280;32260;52.008;4.752;2023-01-13T08:07:56;100373.25;;;10.88;56.99
46534;BME280;32260;52.008;4.752;2023-01-13T08:10:22;100401.69;;;10.81;56.80
46534;BME280;32260;52.008;4.752;2023-01-13T08:12:48;100378.38;;;10.93;56.55
46534;BME280;32260;52.008;4.752;2023-01-13T08:15:34;100382.09;;;10.87;56.36
46534;BME280;32260;52.008;4.752;2023-01-13T08:18:00;100394.13;;;10.99;56.59
46534;BME280;32260;52.008;4.752;2023-01-13T08:20:26;100412.53;;;11.04;56.10
46534;BME280;32260;52.008;4.752;2023-01-13T08:22:57;100399.69;;;10.90;56.48
46534;BME280;32260;52.008;4.752;2023-01-13T08:25:24;100412.22;;;10.84;57.03
46534;BME280;32260;52.008;4.752;2023-01-13T08:27:51;100409.16;;;10.98;56.64
46534;BME280;32260;52.008;4.752;2023-01-13T08:30:17;100415.03;;;10.78;57.66
46534;BME280;32260;52.008;4.752;2023-01-13T08:32:46;100420.63;;;10.67;59.36
46534;BME280;32260;52.008;4.752;2023-01-13T08:35:14;100418.34;;;10.54;59.56
46534;BME280;32260;52.008;4.752;2023-01-13T08:37:42;100422.31;;;10.37;61.27
46534;BME280;32260;52.008;4.752;2023-01-13T08:40:09;100411.38;;;10.15;62.27
46534;BME280;32260;52.008;4.752;2023-01-13T08:42:35;100437.75;;;10.18;62.49
46534;BME280;32260;52.008;4.752;2023-01-13T08:45:02;100416.00;;;10.05;63.47
46534;BME280;32260;52.008;4.752;2023-01-13T08:47:28;100424.63;;;9.76;64.66
46534;BME280;32260;52.008;4.752;2023-01-13T08:49:54;100427.94;;;9.87;65.03
46534;BME280;32260;52.008;4.752;2023-01-13T08:52:21;100425.63;;;9.71;65.07
46534;BME280;32260;52.008;4.752;2023-01-13T08:54:47;100429.22;;;9.69;65.55
46534;BME280;32260;52.008;4.752;2023-01-13T08:57:13;100437.09;;;9.70;65.41
46534;BME280;32260;52.008;4.752;2023-01-13T08:59:40;100440.03;;;9.60;66.40
46534;BME280;32260;52.008;4.752;2023-01-13T09:02:14;100445.28;;;9.61;67.28
46534;BME280;32260;52.008;4.752;2023-01-13T09:04:40;100459.03;;;9.36;67.12
46534;BME280;32260;52.008;4.752;2023-01-13T09:07:07;100449.97;;;9.47;67.19
46534;BME280;32260;52.008;4.752;2023-01-13T09:09:33;100447.31;;;9.48;67.24
46534;BME280;32260;52.008;4.752;2023-01-13T09:11:59;100467.53;;;9.51;67.60
46534;BME280;32260;52.008;4.752;2023-01-13T09:14:45;100466.78;;;9.44;67.91
46534;BME280;32260;52.008;4.752;2023-01-13T09:17:11;100461.31;;;9.52;67.72
46534;BME280;32260;52.008;4.752;2023-01-13T09:19:37;100462.25;;;9.49;67.41
46534;BME280;32260;52.008;4.752;2023-01-13T09:22:04;100464.81;;;9.54;67.44
46534;BME280;32260;52.008;4.752;2023-01-13T09:24:30;100472.97;;;9.45;67.40
46534;BME280;32260;52.008;4.752;2023-01-13T09:26:56;100472.47;;;9.66;66.96
46534;BME280;32260;52.008;4.752;2023-01-13T09:29:23;100474.16;;;9.70;66.31
46534;BME280;32260;52.008;4.752;2023-01-13T09:31:49;100468.00;;;9.70;66.18
46534;BME280;32260;52.008;4.752;2023-01-13T09:34:17;100489.03;;;9.76;65.49
46534;BME280;32260;52.008;4.752;2023-01-13T09:37:05;100475.41;;;9.93;65.09
46534;BME280;32260;52.008;4.752;2023-01-13T09:39:32;100477.00;;;10.00;65.09
46534;BME280;32260;52.008;4.752;2023-01-13T09:42:20;100491.06;;;10.02;65.23
46534;BME280;32260;52.008;4.752;2023-01-13T09:48:11;100502.38;;;10.09;64.52
46534;BME280;32260;52.008;4.752;2023-01-13T09:53:36;100499.78;;;10.08;63.95
46534;BME280;32260;52.008;4.752;2023-01-13T09:56:03;100508.47;;;10.13;63.74
46534;BME280;32260;52.008;4.752;2023-01-13T09:58:30;100545.53;;;10.14;63.52
46534;BME280;32260;52.008;4.752;2023-01-13T10:01:05;100526.84;;;10.20;62.88
46534;BME280;32260;52.008;4.752;2023-01-13T10:03:36;100513.56;;;10.22;62.72
46534;BME280;32260;52.008;4.752;2023-01-13T10:08:42;100533.81;;;10.25;63.14
46534;BME280;32260;52.008;4.752;2023-01-13T10:13:54;100536.25;;;10.32;64.03
46534;BME280;32260;52.008;4.752;2023-01-13T10:19:15;100555.41;;;10.06;64.22
46534;BME280;32260;52.008;4.752;2023-01-13T10:22:00;100551.56;;;10.19;64.18
46534;BME280;32260;52.008;4.752;2023-01-13T10:24:57;100556.84;;;10.21;63.90
46534;BME280;32260;52.008;4.752;2023-01-13T10:27:38;100542.72;;;10.20;63.72
46534;BME280;32260;52.008;4.752;2023-01-13T10:30:25;100555.66;;;10.33;63.28
46534;BME280;32260;52.008;4.752;2023-01-13T10:32:58;100564.53;;;10.30;62.95
46534;BME280;32260;52.008;4.752;2023-01-13T10:38:25;100582.81;;;10.44;62.04
46534;BME280;32260;52.008;4.752;2023-01-13T10:40:58;100571.28;;;10.45;61.57
46534;BME280;32260;52.008;4.752;2023-01-13T10:43:26;100585.63;;;10.36;61.11
46534;BME280;32260;52.008;4.752;2023-01-13T10:57:19;100587.59;;;10.66;60.44
46534;BME280;32260;52.008;4.752;2023-01-13T10:59:47;100594.53;;;10.72;60.28
46534;BME280;32260;52.008;4.752;2023-01-13T11:02:20;100594.53;;;10.70;60.28
46534;BME280;32260;52.008;4.752;2023-01-13T11:07:38;100604.84;;;10.82;60.02
46534;BME280;32260;52.008;4.752;2023-01-13T11:10:17;100594.34;;;10.78;59.64
46534;BME280;32260;52.008;4.752;2023-01-13T11:12:52;100595.34;;;10.74;59.82
46534;BME280;32260;52.008;4.752;2023-01-13T11:15:30;100592.84;;;10.67;60.17
46534;BME280;32260;52.008;4.752;2023-01-13T11:18:04;100585.59;;;10.76;59.61
46534;BME280;32260;52.008;4.752;2023-01-13T11:20:37;100613.75;;;10.80;59.54
46534;BME280;32260;52.008;4.752;2023-01-13T11:23:14;100613.50;;;10.91;59.98
46534;BME280;32260;52.008;4.752;2023-01-13T11:25:45;100605.72;;;10.83;59.59
46534;BME280;32260;52.008;4.752;2023-01-13T11:31:46;100628.75;;;10.81;59.64
46534;BME280;32260;52.008;4.752;2023-01-13T11:34:03;100642.22;;;10.72;59.46
46534;BME280;32260;52.008;4.752;2023-01-13T11:36:45;100676.72;;;10.68;58.78
46534;BME280;32260;52.008;4.752;2023-01-13T11:39:19;100654.25;;;10.85;58.86
46534;BME280;32260;52.008;4.752;2023-01-13T11:42:11;100635.69;;;10.87;58.93
46534;BME280;32260;52.008;4.752;2023-01-13T11:47:35;100633.50;;;11.03;59.15
46534;BME280;32260;52.008;4.752;2023-01-13T11:50:02;100648.69;;;10.96;59.77
46534;BME280;32260;52.008;4.752;2023-01-13T11:55:47;100673.16;;;11.07;59.44
46534;BME280;32260;52.008;4.752;2023-01-13T11:59:26;100645.78;;;11.07;59.11
46534;BME280;32260;52.008;4.752;2023-01-13T12:04:10;100659.91;;;11.07;59.02
46534;BME280;32260;52.008;4.752;2023-01-13T12:06:43;100648.03;;;11.22;58.83
46534;BME280;32260;52.008;4.752;2023-01-13T12:20:38;100709.72;;;11.29;57.12
46534;BME280;32260;52.008;4.752;2023-01-13T12:23:20;100675.09;;;11.37;57.09
46534;BME280;32260;52.008;4.752;2023-01-13T12:25:53;100683.94;;;11.36;56.54
46534;BME280;32260;52.008;4.752;2023-01-13T12:28:27;100680.38;;;11.37;56.62
46534;BME280;32260;52.008;4.752;2023-01-13T12:30:58;100696.63;;;11.24;56.12
46534;BME280;32260;52.008;4.752;2023-01-13T12:41:58;100708.03;;;11.26;56.82
46534;BME280;32260;52.008;4.752;2023-01-13T12:47:45;100727.50;;;11.27;57.00
46534;BME280;32260;52.008;4.752;2023-01-13T12:53:28;100745.00;;;11.34;56.65
46534;BME280;32260;52.008;4.752;2023-01-13T12:56:31;100720.09;;;11.40;56.88
46534;BME280;32260;52.008;4.752;2023-01-13T13:04:49;100738.97;;;11.27;56.48
46534;BME280;32260;52.008;4.752;2023-01-13T13:07:38;100741.69;;;11.24;57.15
46534;BME280;32260;52.008;4.752;2023-01-13T13:10:16;100747.66;;;11.32;56.98
46534;BME280;32260;52.008;4.752;2023-01-13T13:15:23;100749.34;;;11.37;56.72
46534;BME280;32260;52.008;4.752;2023-01-13T13:21:10;100771.22;;;11.46;56.52
46534;BME280;32260;52.008;4.752;2023-01-13T13:23:39;100756.63;;;11.28;57.21
46534;BME280;32260;52.008;4.752;2023-01-13T13:26:32;100788.16;;;11.41;56.26
46534;BME280;32260;52.008;4.752;2023-01-13T13:32:23;100788.25;;;11.38;56.35
46534;BME280;32260;52.008;4.752;2023-01-13T13:40:31;100788.00;;;11.47;57.60
46534;BME280;32260;52.008;4.752;2023-01-13T13:43:23;100802.13;;;11.49;57.60
46534;BME280;32260;52.008;4.752;2023-01-13T13:46:31;100788.50;;;11.63;57.58
46534;BME280;32260;52.008;4.752;2023-01-13T13:49:19;100803.69;;;11.56;57.23
46534;BME280;32260;52.008;4.752;2023-01-13T13:52:16;100847.97;;;11.54;57.61
46534;BME280;32260;52.008;4.752;2023-01-13T13:54:45;100804.88;;;11.44;57.69
46534;BME280;32260;52.008;4.752;2023-01-13T13:57:20;100814.53;;;11.47;57.84
46534;BME280;32260;52.008;4.752;2023-01-13T13:59:52;100811.94;;;11.45;56.82
46534;BME280;32260;52.008;4.752;2023-01-13T14:02:27;100825.06;;;11.50;56.86
46534;BME280;32260;52.008;4.752;2023-01-13T14:07:47;100846.28;;;11.52;57.07
46534;BME280;32260;52.008;4.752;2023-01-13T14:10:24;100858.06;;;11.38;56.75
46534;BME280;32260;52.008;4.752;2023-01-13T14:12:53;100840.84;;;11.56;57.09
46534;BME280;32260;52.008;4.752;2023-01-13T14:15:31;100844.56;;;11.49;57.04
46534;BME280;32260;52.008;4.752;2023-01-13T14:17:59;100849.75;;;11.54;57.26
46534;BME280;32260;52.008;4.752;2023-01-13T14:20:26;100875.06;;;11.29;57.40
46534;BME280;32260;52.008;4.752;2023-01-13T14:22:54;100867.59;;;11.47;56.92
46534;BME280;32260;52.008;4.752;2023-01-13T14:25:35;100856.91;;;11.50;57.03
46534;BME280;32260;52.008;4.752;2023-01-13T14:28:20;100882.34;;;11.59;56.85
46534;BME280;32260;52.008;4.752;2023-01-13T14:30:47;100882.72;;;11.43;56.51
46534;BME280;32260;52.008;4.752;2023-01-13T14:33:17;100869.44;;;11.43;56.91
46534;BME280;32260;52.008;4.752;2023-01-13T14:36:13;100880.97;;;11.42;57.01
46534;BME280;32260;52.008;4.752;2023-01-13T14:38:41;100899.13;;;11.22;56.87
46534;BME280;32260;52.008;4.752;2023-01-13T14:41:10;100873.41;;;11.25;57.42
46534;BME280;32260;52.008;4.752;2023-01-13T14:43:44;100871.38;;;11.37;56.91
46534;BME280;32260;52.008;4.752;2023-01-13T14:46:10;100885.81;;;11.23;56.69
46534;BME280;32260;52.008;4.752;2023-01-13T14:48:37;100880.66;;;11.17;56.81
46534;BME280;32260;52.008;4.752;2023-01-13T14:51:08;100893.97;;;11.14;57.14
46534;BME280;32260;52.008;4.752;2023-01-13T14:53:43;100899.00;;;11.28;56.99
46534;BME280;32260;52.008;4.752;2023-01-13T14:57:26;100907.03;;;11.23;57.87
46534;BME280;32260;52.008;4.752;2023-01-13T15:02:37;100911.28;;;11.32;58.10
46534;BME280;32260;52.008;4.752;2023-01-13T15:11:05;100930.00;;;11.24;58.93
46534;BME280;32260;52.008;4.752;2023-01-13T15:16:04;100947.75;;;11.21;59.05
46534;BME280;32260;52.008;4.752;2023-01-13T15:18:31;100938.78;;;11.26;59.30
46534;BME280;32260;52.008;4.752;2023-01-13T15:20:59;100961.91;;;11.20;59.15
46534;BME280;32260;52.008;4.752;2023-01-13T15:23:25;100961.06;;;11.17;59.27
46534;BME280;32260;52.008;4.752;2023-01-13T15:25:51;100962.72;;;11.23;59.11